Snow/Ice From: 24-10-2018 05:00 Until: 09:00 warning for: Snow/Ice Level: Yellow info button
suomi:
Liikennesää: Ajokeli muuttuu huonoksi aamulla tienpintojen jäätymisen vuoksi.

svenska:
Trafikvädret: Väglaget blir dåligt på morgonen p.g.a. tillfrysning av vägytor.

english:
Traffic weather warning: Bad road conditions are expected in the morning because of ice-covered roads. 


Thunder radar more information blitzortung!


Löydät sääaseman tiedot myös:

European Weather Network

Finland Weather Exchange

Weather Underground

AWEKAS



Weather Underground säähistoriasivu

Päivittäin yhteenveto Syyskuu 6, 2017 Yksiköt:  Metriset    Englantilaiset   Molemmat
« Edellinen Päivä
Seuraava Päivä »
Päivittäin Viikoittain Kuukausittain Vuosittain Mukautettu
  Korkea: Matala: Keskiarvo:
Lämpötila: -17.8 °C 0 °C 7.6 °C
Kastepiste: -17.8 °C -0.6 °C 4.7 °C
Kosteus: Humidity % 57 % 83 %
Tuulen nopeus: 0 km/h 0 km/h 0.2 km/h
Tuulenpuuska: 0 km/h - -
Tuuli:- - SE
Ilmanpaine: 0 hPa 1014.8 hPa -
Sade: 0 mm    
Historical Graphs
 
 
Taulukkotiedot Syyskuu 6, 2017
Aika Lämpötila Kastepiste Ilmanpaine Tuuli Tuulen nopeus Tuulenpuuska Kosteus Sademäärä (tunneittain)
-17.8 °C -17.8 °C 0 hPa Calm     Humidity % 0 mm
00:00 4.9 °C 3.9 °C 1023.9 hPa Calm     93 % 0 mm
00:15 4.5 °C 3.5 °C 1023.9 hPa Calm     93 % 0 mm
00:30 4.4 °C 3.5 °C 1023.9 hPa Calm     94 % 0 mm
00:45 4.3 °C 3.5 °C 1023.6 hPa Calm   1.6 km/h 94 % 0 mm
01:00 3.8 °C 3 °C 1023.6 hPa Calm     94 % 0 mm
01:15 3.5 °C 2.6 °C 1023.6 hPa Calm     94 % 0 mm
01:30 3.4 °C 2.6 °C 1023.2 hPa Calm     94 % 0 mm
01:45 3.2 °C 2.3 °C 1023.2 hPa Calm     94 % 0 mm
02:00 3 °C 2.1 °C 1023.2 hPa Calm     94 % 0 mm
02:15 2.8 °C 2.1 °C 1023.2 hPa Calm     95 % 0 mm
02:30 2.7 °C 2 °C 1022.9 hPa Calm     95 % 0 mm
02:45 2.6 °C 1.8 °C 1022.9 hPa Calm     95 % 0 mm
03:00 2.4 °C 1.7 °C 1022.6 hPa Calm     95 % 0 mm
03:15 2.2 °C 1.5 °C 1022.6 hPa Calm     95 % 0 mm
03:30 2.1 °C 1.4 °C 1022.6 hPa Calm     95 % 0 mm
03:45 1.8 °C 1.1 °C 1022.2 hPa Calm     95 % 0 mm
04:00 1.6 °C 0.9 °C 1022.2 hPa Calm     95 % 0 mm
04:15 1.4 °C 0.7 °C 1022.2 hPa Calm     95 % 0 mm
04:30 1.3 °C 0.6 °C 1022.2 hPa Calm     95 % 0 mm
04:45 1.2 °C 0.5 °C 1022.2 hPa Calm     95 % 0 mm
05:00 1.1 °C 0.3 °C 1021.9 hPa Calm     95 % 0 mm
05:15 0.9 °C 0.4 °C 1021.9 hPa Calm     96 % 0 mm
05:30 0.8 °C 0.1 °C 1021.9 hPa Calm     95 % 0 mm
05:45 0.8 °C 0.1 °C 1021.6 hPa Calm     95 % 0 mm
06:00 0.7 °C 0.1 °C 1021.6 hPa Calm     96 % 0 mm
06:15 0.5 °C -0.2 °C 1021.6 hPa Calm     95 % 0 mm
06:30 0.3 °C -0.2 °C 1021.6 hPa Calm     96 % 0 mm
06:45 0.2 °C -0.5 °C 1021.6 hPa Calm     95 % 0 mm
07:00 0.1 °C -0.5 °C 1021.2 hPa Calm     96 % 0 mm
07:15 0 °C -0.6 °C 1021.2 hPa Calm     96 % 0 mm
07:30 0.1 °C -0.5 °C 1021.2 hPa Calm     96 % 0 mm
07:45 0.2 °C -0.3 °C 1021.2 hPa Calm     96 % 0 mm
08:00 0.4 °C -0.1 °C 1021.2 hPa Calm     96 % 0 mm
08:15 0.9 °C 0.5 °C 1021.2 hPa Calm     97 % 0 mm
08:30 1.6 °C 1.1 °C 1021.2 hPa Calm     97 % 0 mm
08:45 2.6 °C 2.1 °C 1021.2 hPa Calm     97 % 0 mm
09:00 3.3 °C 2.9 °C 1021.2 hPa Calm     97 % 0 mm
09:15 4.2 °C 3.9 °C 1021.2 hPa Calm   4.8 km/h 98 % 0 mm
09:30 4.8 °C 4.5 °C 1020.9 hPa Calm     98 % 0 mm
09:45 5.3 °C 5 °C 1020.9 hPa Calm     98 % 0 mm
10:00 6.1 °C 5.8 °C 1020.9 hPa Calm   6.4 km/h 98 % 0 mm
10:15 6.8 °C 6.5 °C 1020.9 hPa Calm     98 % 0 mm
10:30 7.8 °C 7.5 °C 1020.5 hPa Calm   6.4 km/h 98 % 0 mm
10:45 9 °C 7.8 °C 1020.5 hPa Calm   3.2 km/h 92 % 0 mm
11:00 10.1 °C 8.3 °C 1020.2 hPa Calm   3.2 km/h 89 % 0 mm
11:15 10.8 °C 7.6 °C 1020.2 hPa Calm   9.7 km/h 81 % 0 mm
11:30 11.4 °C 7.9 °C 1020.2 hPa ESE 1.6 km/h 8 km/h 79 % 0 mm
11:45 12 °C 7.5 °C 1019.9 hPa SSE 1.6 km/h 9.7 km/h 74 % 0 mm
12:00 12.4 °C 7.7 °C 1019.9 hPa SSE 1.6 km/h 9.7 km/h 73 % 0 mm
12:15 13.1 °C 8.5 °C 1019.5 hPa Calm   6.4 km/h 74 % 0 mm
12:30 13.4 °C 8 °C 1019.5 hPa Calm   3.2 km/h 70 % 0 mm
12:45 13.7 °C 8.3 °C 1019.2 hPa East 1.6 km/h 8 km/h 70 % 0 mm
13:00 13.7 °C 7.5 °C 1018.8 hPa Calm   8 km/h 66 % 0 mm
13:15 13.9 °C 8.1 °C 1018.8 hPa NNE 1.6 km/h 8 km/h 68 % 0 mm
13:30 14.4 °C 7.9 °C 1018.5 hPa Calm   6.4 km/h 65 % 0 mm
13:45 14.7 °C 7.7 °C 1018.2 hPa SSE 1.6 km/h 11.3 km/h 63 % 0 mm
14:00 14.8 °C 8.7 °C 1018.2 hPa SSE 1.6 km/h 8 km/h 67 % 0 mm
14:15 14.9 °C 8.1 °C 1017.8 hPa Calm   8 km/h 64 % 0 mm
14:30 15 °C 8.9 °C 1017.8 hPa Calm   9.7 km/h 67 % 0 mm
14:45 15.3 °C 8.6 °C 1017.5 hPa Calm   8 km/h 64 % 0 mm
15:00 15.5 °C 7.8 °C 1017.2 hPa Calm   6.4 km/h 60 % 0 mm
15:15 15.6 °C 7.8 °C 1017.2 hPa Calm   6.4 km/h 60 % 0 mm
15:30 15.8 °C 8 °C 1016.8 hPa Calm   6.4 km/h 60 % 0 mm
15:45 16.1 °C 9.1 °C 1016.5 hPa Calm   4.8 km/h 63 % 0 mm
16:00 16.3 °C 8.7 °C 1016.5 hPa Calm   3.2 km/h 61 % 0 mm
16:15 16.3 °C 9.2 °C 1016.5 hPa Calm   8 km/h 63 % 0 mm
16:30 16.3 °C 8.8 °C 1016.1 hPa Calm   3.2 km/h 61 % 0 mm
16:45 16.4 °C 8.6 °C 1016.1 hPa Calm   4.8 km/h 60 % 0 mm
17:00 16.4 °C 7.8 °C 1015.8 hPa Calm   1.6 km/h 57 % 0 mm
17:15 16.3 °C 7.7 °C 1015.8 hPa Calm   4.8 km/h 57 % 0 mm
17:30 16.2 °C 8.6 °C 1015.5 hPa Calm   3.2 km/h 61 % 0 mm
17:45 15.6 °C 8.3 °C 1015.5 hPa Calm   1.6 km/h 62 % 0 mm
18:00 15.2 °C 8.2 °C 1015.5 hPa Calm   1.6 km/h 63 % 0 mm
18:15 14.6 °C 7.6 °C 1015.5 hPa Calm   3.2 km/h 63 % 0 mm
18:30 14.3 °C 7.8 °C 1015.5 hPa Calm   6.4 km/h 65 % 0 mm
18:45 13.9 °C 8.1 °C 1015.5 hPa Calm     68 % 0 mm
19:00 13.5 °C 8.1 °C 1015.1 hPa Calm   1.6 km/h 70 % 0 mm
19:15 13.1 °C 7.8 °C 1015.1 hPa Calm   1.6 km/h 70 % 0 mm
19:30 12.7 °C 7.8 °C 1015.1 hPa Calm     72 % 0 mm
19:45 12.3 °C 7.6 °C 1015.1 hPa Calm     73 % 0 mm
20:00 11.9 °C 7.6 °C 1015.1 hPa Calm     75 % 0 mm
20:15 11.4 °C 7.7 °C 1015.1 hPa Calm     78 % 0 mm
20:30 10.6 °C 7.4 °C 1015.1 hPa Calm     81 % 0 mm
20:45 9.8 °C 7 °C 1015.1 hPa Calm     83 % 0 mm
21:00 9.1 °C 6.8 °C 1015.1 hPa Calm     86 % 0 mm
21:15 8.4 °C 6.4 °C 1015.1 hPa Calm     87 % 0 mm
21:30 7.9 °C 6 °C 1015.1 hPa Calm     88 % 0 mm
21:45 7.3 °C 5.6 °C 1015.1 hPa Calm     89 % 0 mm
22:00 6.9 °C 5.4 °C 1015.1 hPa Calm     90 % 0 mm
22:15 6.6 °C 5.2 °C 1015.1 hPa Calm     91 % 0 mm
22:30 6.2 °C 4.9 °C 1015.1 hPa Calm     91 % 0 mm
22:45 6 °C 4.8 °C 1014.8 hPa Calm     92 % 0 mm
23:00 5.8 °C 4.7 °C 1014.8 hPa Calm     93 % 0 mm
23:15 5.6 °C 4.5 °C 1015.1 hPa Calm     93 % 0 mm
23:30 5.3 °C 4.2 °C 1015.1 hPa Calm     93 % 0 mm
23:45 5.1 °C 4 °C 1014.8 hPa Calm     93 % 0 mm
Esan sääasema
Terveisin Weather Underground - 2.75 mb

Alkuperäinen skripti  Jim McMurry - jmcmurry@mwt.net Sovitettu myös templatelle  Wim van der Kuil - Leuven-Template.eu

Laitteet joita käytämme:

Sääasema
Davis VP2

Sääasemaohjelma
Cumulus

Sääaseman tietokone
Asus EeePC

Palveluntarjoaja
Suncomet

Davis VP2

Cumulus

Asus EeePC

Suncomet